createdAt,value
2018-06-29T00:02:48.655Z,67.43
2018-06-29T00:05:53.050Z,68.13
2018-06-29T00:08:57.533Z,68.50
2018-06-29T00:12:01.958Z,67.76
2018-06-29T00:15:06.302Z,68.13
2018-06-29T00:18:10.669Z,68.77
2018-06-29T00:21:14.985Z,68.68
2018-06-29T00:24:19.574Z,69.34
2018-06-29T00:27:24.572Z,69.87
2018-06-29T00:30:29.997Z,69.62
2018-06-29T00:33:34.343Z,70.10
2018-06-29T00:36:38.599Z,70.23
2018-06-29T00:39:42.940Z,70.75
2018-06-29T00:42:47.247Z,70.65
2018-06-29T00:45:51.608Z,71.36
2018-06-29T00:48:55.896Z,72.41
2018-06-29T00:52:00.241Z,72.26
2018-06-29T00:55:04.757Z,73.14
2018-06-29T00:58:08.933Z,73.07
2018-06-29T01:01:13.299Z,73.52
2018-06-29T01:04:17.623Z,73.59
2018-06-29T01:07:22.128Z,73.58
2018-06-29T01:10:26.462Z,73.50
2018-06-29T01:13:30.757Z,74.15
2018-06-29T01:16:35.155Z,74.41
2018-06-29T01:19:39.488Z,74.71
2018-06-29T01:22:43.741Z,75.35
2018-06-29T01:25:48.118Z,75.24
2018-06-29T01:28:52.455Z,75.39
2018-06-29T01:31:56.944Z,76.17
2018-06-29T01:35:01.325Z,76.49
2018-06-29T01:38:05.680Z,77.04
2018-06-29T01:41:10.073Z,77.18
2018-06-29T01:44:14.357Z,77.66
2018-06-29T01:47:18.724Z,77.29
2018-06-29T01:50:23.122Z,77.45
2018-06-29T01:53:27.405Z,78.24
2018-06-29T01:56:31.708Z,79.14
2018-06-29T01:59:36.057Z,79.37
2018-06-29T02:02:40.398Z,79.97
2018-06-29T02:05:44.723Z,80.39
2018-06-29T02:08:49.031Z,80.67
2018-06-29T02:11:53.343Z,80.85
2018-06-29T02:14:57.679Z,81.35
2018-06-29T02:18:01.948Z,81.23
2018-06-29T02:21:06.342Z,81.79
2018-06-29T02:24:10.632Z,82.25
2018-06-29T02:27:15.048Z,82.98
2018-06-29T02:30:19.462Z,83.18
2018-06-29T02:33:23.685Z,82.83
2018-06-29T02:36:28.004Z,83.50
2018-06-29T02:39:32.274Z,83.74
2018-06-29T02:42:37.584Z,83.63
2018-06-29T02:45:42.087Z,84.19
2018-06-29T02:48:46.388Z,84.36
2018-06-29T02:51:50.649Z,84.41
2018-06-29T02:54:55.089Z,84.13
2018-06-29T02:57:59.500Z,84.71
2018-06-29T03:01:03.877Z,84.80
2018-06-29T03:04:08.194Z,85.09
2018-06-29T03:07:12.519Z,85.35
2018-06-29T03:10:16.793Z,85.67
2018-06-29T03:13:21.132Z,86.03
2018-06-29T03:16:26.428Z,86.33
2018-06-29T03:19:30.753Z,86.20
2018-06-29T03:22:35.153Z,86.90
2018-06-29T03:25:39.451Z,87.22
2018-06-29T03:28:43.781Z,87.28
2018-06-29T03:31:48.056Z,86.58
2018-06-29T03:34:52.456Z,85.71
2018-06-29T03:37:56.833Z,85.23
2018-06-29T03:41:01.094Z,83.79
2018-06-29T03:44:05.599Z,83.50
2018-06-29T03:47:09.844Z,83.33
2018-06-29T03:50:14.121Z,83.10
2018-06-29T03:53:18.425Z,81.93
2018-06-29T03:56:22.700Z,81.76
2018-06-29T03:59:26.961Z,80.71
2018-06-29T04:02:31.313Z,80.72
2018-06-29T04:05:35.600Z,79.81
2018-06-29T04:08:39.922Z,79.77
2018-06-29T04:11:44.367Z,79.46
2018-06-29T04:14:48.688Z,78.92
2018-06-29T04:17:52.994Z,79.58
2018-06-29T04:20:57.400Z,80.10
2018-06-29T04:24:01.964Z,81.47
2018-06-29T04:27:06.377Z,81.74
2018-06-29T04:30:10.796Z,83.33
2018-06-29T04:33:15.148Z,83.22
2018-06-29T04:36:19.512Z,83.47
2018-06-29T04:39:23.828Z,83.49
2018-06-29T04:42:28.108Z,84.01
2018-06-29T04:45:32.475Z,84.29
2018-06-29T04:48:36.965Z,85.47
2018-06-29T04:51:41.310Z,85.15
2018-06-29T04:54:45.668Z,84.84
2018-06-29T04:57:49.987Z,84.97
2018-06-29T05:00:54.369Z,84.90
2018-06-29T05:04:02.866Z,84.40
2018-06-29T05:07:07.212Z,84.58
2018-06-29T05:10:11.515Z,84.68
2018-06-29T05:13:15.780Z,83.47
2018-06-29T05:16:20.053Z,83.31
2018-06-29T05:19:29.325Z,82.97
2018-06-29T05:22:33.638Z,82.25
2018-06-29T05:25:37.962Z,82.56
2018-06-29T05:28:42.270Z,82.50
2018-06-29T05:31:46.578Z,81.50
2018-06-29T05:34:50.825Z,81.29
2018-06-29T05:37:55.215Z,81.79
2018-06-29T05:40:59.711Z,80.86
2018-06-29T05:44:04.804Z,80.14
2018-06-29T05:47:09.251Z,79.76
2018-06-29T05:50:13.662Z,79.80
2018-06-29T05:53:18.065Z,79.94
2018-06-29T05:56:22.370Z,79.87
2018-06-29T05:59:26.696Z,78.83
2018-06-29T06:02:31.086Z,78.61
2018-06-29T06:05:35.386Z,78.67
2018-06-29T06:08:39.840Z,78.33
2018-06-29T06:11:44.193Z,78.10
2018-06-29T06:14:48.616Z,76.85
2018-06-29T06:17:53.097Z,76.76
2018-06-29T06:20:57.539Z,76.10
2018-06-29T06:24:01.872Z,76.75
2018-06-29T06:27:06.169Z,74.88
2018-06-29T06:30:10.557Z,74.60
2018-06-29T06:33:15.047Z,74.66
2018-06-29T06:36:19.225Z,73.23
2018-06-29T06:39:23.594Z,73.75
2018-06-29T06:42:28.055Z,74.02
2018-06-29T06:45:32.563Z,73.19
2018-06-29T06:48:36.917Z,72.19
2018-06-29T06:51:41.484Z,72.46
2018-06-29T06:54:46.010Z,73.05
2018-06-29T06:57:50.605Z,72.86
2018-06-29T07:00:54.970Z,71.89
2018-06-29T07:03:59.461Z,72.07
2018-06-29T07:07:03.884Z,72.02
2018-06-29T07:10:08.249Z,71.78
2018-06-29T07:13:12.604Z,71.47
2018-06-29T07:16:16.959Z,70.94
2018-06-29T07:19:21.465Z,71.05
2018-06-29T07:22:25.902Z,70.31
2018-06-29T07:25:30.234Z,69.92
2018-06-29T07:28:34.529Z,70.81
2018-06-29T07:31:38.819Z,69.72
2018-06-29T07:34:43.191Z,69.75
2018-06-29T07:37:47.551Z,68.75
2018-06-29T07:40:51.872Z,68.59
2018-06-29T07:43:56.330Z,69.44
2018-06-29T07:47:00.630Z,67.96
2018-06-29T07:50:05.875Z,68.39
2018-06-29T07:53:10.276Z,68.18
2018-06-29T07:56:14.681Z,66.87
2018-06-29T07:59:19.231Z,67.15
2018-06-29T08:02:23.766Z,66.97
2018-06-29T08:05:28.086Z,65.10
2018-06-29T08:08:32.698Z,65.07
2018-06-29T08:11:37.312Z,65.01
2018-06-29T08:14:41.703Z,65.77
2018-06-29T08:17:46.423Z,65.14
2018-06-29T08:20:50.990Z,64.46
2018-06-29T08:23:55.816Z,64.36
2018-06-29T08:27:00.288Z,64.19
2018-06-29T08:30:05.118Z,63.58
2018-06-29T08:33:09.731Z,64.43
2018-06-29T08:36:14.094Z,63.16
2018-06-29T08:39:18.632Z,62.92
2018-06-29T08:42:23.293Z,62.58
2018-06-29T08:45:27.609Z,63.00
2018-06-29T08:48:32.203Z,62.72
2018-06-29T08:51:36.544Z,61.52
2018-06-29T08:54:40.894Z,60.33
2018-06-29T08:57:45.512Z,59.44
2018-06-29T09:00:50.211Z,59.59
2018-06-29T09:03:54.850Z,57.32
2018-06-29T09:06:59.229Z,57.77
2018-06-29T09:10:03.575Z,56.98
2018-06-29T09:13:08.120Z,57.10
2018-06-29T09:16:12.312Z,56.55
2018-06-29T09:19:17.063Z,56.82
2018-06-29T09:22:21.363Z,57.14
2018-06-29T09:25:26.253Z,53.49
2018-06-29T09:28:31.094Z,54.70
2018-06-29T09:31:40.041Z,53.39
2018-06-29T09:34:44.702Z,52.23
2018-06-29T09:37:49.005Z,50.22
2018-06-29T09:40:53.814Z,52.70
2018-06-29T09:43:58.419Z,50.21
2018-06-29T09:47:02.897Z,49.99
2018-06-29T09:50:07.384Z,51.84
2018-06-29T09:53:11.705Z,51.96
2018-06-29T09:56:16.218Z,51.04
2018-06-29T09:59:20.613Z,50.82
2018-06-29T10:02:31.688Z,49.88
2018-06-29T10:05:29.750Z,48.41
2018-06-29T10:08:34.056Z,47.89
2018-06-29T10:11:38.512Z,49.25
2018-06-29T10:14:43.410Z,50.20
2018-06-29T10:17:47.755Z,50.25
2018-06-29T10:20:52.084Z,49.45
2018-06-29T10:23:56.691Z,50.51
2018-06-29T10:27:05.355Z,50.80
2018-06-29T10:30:10.354Z,50.81
2018-06-29T10:33:16.469Z,51.14
2018-06-29T10:36:20.806Z,51.26
2018-06-29T10:39:25.478Z,50.84
2018-06-29T10:42:30.520Z,50.93
2018-06-29T10:45:35.392Z,50.45
2018-06-29T10:48:39.909Z,50.24
2018-06-29T10:51:44.229Z,49.11
2018-06-29T10:54:48.803Z,49.25
2018-06-29T10:57:53.203Z,48.55
2018-06-29T11:00:57.798Z,47.92
2018-06-29T11:04:04.586Z,46.02
2018-06-29T11:07:12.902Z,47.29
2018-06-29T11:10:17.973Z,46.17
2018-06-29T11:13:22.419Z,46.66
2018-06-29T11:16:27.116Z,46.22
2018-06-29T11:19:32.916Z,45.67
2018-06-29T11:22:37.358Z,44.62
2018-06-29T11:25:42.366Z,44.99
2018-06-29T11:28:46.852Z,44.55
2018-06-29T11:31:51.411Z,45.60
2018-06-29T11:34:56.007Z,44.58
2018-06-29T11:38:00.393Z,44.36
2018-06-29T11:41:05.481Z,43.88
2018-06-29T11:44:10.467Z,43.74
2018-06-29T11:47:14.950Z,42.43
2018-06-29T11:50:19.536Z,40.95
2018-06-29T11:53:23.904Z,41.11
2018-06-29T11:56:28.204Z,40.29
2018-06-29T11:59:32.453Z,40.47
2018-06-29T12:02:36.869Z,39.89
2018-06-29T12:05:41.346Z,40.85
2018-06-29T12:08:46.089Z,41.54
2018-06-29T12:11:50.702Z,41.43
2018-06-29T12:14:55.300Z,42.34
2018-06-29T12:17:59.838Z,41.52
2018-06-29T12:21:04.237Z,42.41
2018-06-29T12:24:09.286Z,41.62
2018-06-29T12:27:14.036Z,41.32
2018-06-29T12:30:18.539Z,41.86
2018-06-29T12:33:23.271Z,42.18
2018-06-29T12:36:27.966Z,42.38
2018-06-29T12:39:32.507Z,41.60
2018-06-29T12:42:37.160Z,42.09
2018-06-29T12:45:41.763Z,40.46
2018-06-29T12:48:46.835Z,41.44
2018-06-29T12:51:51.335Z,40.79
2018-06-29T12:54:55.991Z,41.29
2018-06-29T12:58:00.723Z,40.60
2018-06-29T13:01:05.232Z,41.03
2018-06-29T13:04:09.618Z,41.43
2018-06-29T13:07:14.292Z,41.54
2018-06-29T13:10:18.974Z,40.95
2018-06-29T13:13:23.644Z,41.57
2018-06-29T13:16:29.474Z,41.48
2018-06-29T13:19:34.151Z,42.35
2018-06-29T13:22:39.231Z,42.06
2018-06-29T13:25:43.979Z,40.90
2018-06-29T13:28:48.916Z,42.14
2018-06-29T13:31:55.638Z,41.72
2018-06-29T13:35:00.492Z,41.65
2018-06-29T13:38:05.756Z,41.68
2018-06-29T13:41:10.669Z,40.88
2018-06-29T13:44:15.335Z,40.34
2018-06-29T13:47:19.945Z,40.13
2018-06-29T13:50:24.594Z,40.41
2018-06-29T13:53:29.488Z,41.56
2018-06-29T13:56:34.132Z,41.05
2018-06-29T13:59:38.839Z,40.14
2018-06-29T14:02:43.636Z,39.69
2018-06-29T14:05:49.174Z,40.15
2018-06-29T14:08:54.433Z,39.68
2018-06-29T14:11:59.062Z,39.72
2018-06-29T14:15:03.937Z,38.21
2018-06-29T14:18:12.048Z,39.11
2018-06-29T14:21:16.773Z,39.05
2018-06-29T14:24:22.018Z,39.40
2018-06-29T14:27:28.715Z,39.79
2018-06-29T14:30:33.363Z,38.54
2018-06-29T14:33:38.055Z,39.11
2018-06-29T14:36:42.822Z,39.86
2018-06-29T14:39:47.380Z,39.03
2018-06-29T14:42:52.617Z,39.30
2018-06-29T14:45:57.779Z,39.70
2018-06-29T14:49:02.321Z,39.27
2018-06-29T14:52:07.175Z,38.85
2018-06-29T14:55:11.662Z,39.10
2018-06-29T14:58:17.346Z,40.40
2018-06-29T15:01:23.466Z,40.68
2018-06-29T15:04:28.440Z,39.84
2018-06-29T15:07:33.530Z,40.96
2018-06-29T15:10:38.171Z,40.41
2018-06-29T15:13:43.306Z,38.88
2018-06-29T15:16:48.061Z,37.03
2018-06-29T15:19:53.075Z,32.77
2018-06-29T15:22:57.893Z,29.72
2018-06-29T15:26:03.937Z,29.91
2018-06-29T15:29:08.614Z,30.75
2018-06-29T15:32:13.173Z,30.10
2018-06-29T15:35:18.141Z,29.51
2018-06-29T15:38:22.877Z,28.49
2018-06-29T15:41:27.607Z,28.29
2018-06-29T15:44:32.240Z,28.04
2018-06-29T15:47:37.101Z,28.62
2018-06-29T15:50:41.645Z,27.15
2018-06-29T15:53:46.437Z,27.18
2018-06-29T15:56:50.990Z,26.70
2018-06-29T15:59:55.925Z,28.29
2018-06-29T16:03:00.432Z,28.15
2018-06-29T16:06:05.439Z,27.88
2018-06-29T16:09:10.658Z,27.19
2018-06-29T16:12:15.207Z,27.56
2018-06-29T16:15:19.818Z,27.66
2018-06-29T16:18:24.476Z,26.77
2018-06-29T16:21:29.041Z,26.17
2018-06-29T16:24:33.568Z,26.37
2018-06-29T16:27:38.206Z,26.48
2018-06-29T16:30:42.886Z,27.16
2018-06-29T16:33:47.759Z,26.78
2018-06-29T16:36:52.398Z,27.54
2018-06-29T16:39:57.018Z,28.38
2018-06-29T16:43:01.490Z,27.97
2018-06-29T16:46:06.757Z,29.37
2018-06-29T16:49:11.525Z,29.77
2018-06-29T16:52:16.252Z,29.65
2018-06-29T16:55:20.877Z,29.78
2018-06-29T16:58:25.554Z,28.84
2018-06-29T17:01:30.068Z,28.55
2018-06-29T17:04:34.656Z,29.20
2018-06-29T17:07:39.279Z,28.82
2018-06-29T17:10:43.789Z,27.99
2018-06-29T17:13:48.628Z,28.67
2018-06-29T17:16:53.178Z,29.29
2018-06-29T17:19:59.043Z,28.52
2018-06-29T17:23:03.670Z,31.05
2018-06-29T17:26:08.493Z,33.43
2018-06-29T17:29:13.500Z,35.44
2018-06-29T17:32:18.396Z,36.88
2018-06-29T17:35:22.968Z,36.50
2018-06-29T17:38:27.775Z,36.00
2018-06-29T17:41:32.536Z,36.93
2018-06-29T17:44:37.025Z,36.95
2018-06-29T17:47:41.706Z,37.46
2018-06-29T17:50:46.506Z,40.29
2018-06-29T17:53:50.984Z,42.63
2018-06-29T17:56:55.510Z,44.71
2018-06-29T18:00:00.355Z,45.96
2018-06-29T18:03:04.863Z,46.94
2018-06-29T18:06:09.389Z,48.40
2018-06-29T18:09:13.854Z,48.20
2018-06-29T18:12:18.341Z,48.08
2018-06-29T18:15:22.772Z,49.66
2018-06-29T18:18:27.213Z,49.10
2018-06-29T18:21:31.729Z,49.66
2018-06-29T18:24:36.244Z,49.37
2018-06-29T18:27:40.767Z,48.77
2018-06-29T18:30:45.322Z,49.56
2018-06-29T18:33:50.050Z,49.89
2018-06-29T18:36:54.761Z,50.16
2018-06-29T18:39:59.382Z,49.51
2018-06-29T18:43:03.928Z,49.17
2018-06-29T18:46:08.556Z,49.80
2018-06-29T18:49:13.081Z,48.91
2018-06-29T18:52:17.799Z,49.07
2018-06-29T18:55:22.460Z,49.91
2018-06-29T18:58:27.378Z,50.03
2018-06-29T19:01:32.372Z,49.79
2018-06-29T19:04:36.969Z,50.39
2018-06-29T19:07:41.546Z,50.63
2018-06-29T19:10:46.077Z,50.61
2018-06-29T19:13:50.688Z,49.85
2018-06-29T19:16:55.269Z,49.77
2018-06-29T19:19:59.471Z,49.82
2018-06-29T19:23:04.151Z,50.62
2018-06-29T19:26:08.647Z,50.02
2018-06-29T19:29:13.435Z,50.32
2018-06-29T19:32:18.100Z,50.75
2018-06-29T19:35:22.709Z,50.85
2018-06-29T19:38:27.329Z,51.32
2018-06-29T19:41:31.939Z,52.19
2018-06-29T19:44:36.638Z,52.51
2018-06-29T19:47:41.200Z,52.83
2018-06-29T19:50:45.803Z,52.27
2018-06-29T19:53:50.340Z,53.14
2018-06-29T19:56:55.026Z,52.71
2018-06-29T19:59:59.826Z,53.06
2018-06-29T20:03:04.433Z,53.85
2018-06-29T20:06:08.942Z,54.17
2018-06-29T20:09:14.005Z,54.41
2018-06-29T20:12:18.431Z,55.00
2018-06-29T20:15:23.028Z,55.31
2018-06-29T20:18:27.672Z,56.17
2018-06-29T20:21:32.574Z,56.31
2018-06-29T20:24:37.088Z,56.59
2018-06-29T20:27:41.613Z,57.54
2018-06-29T20:30:46.159Z,57.53
2018-06-29T20:33:50.744Z,58.05
2018-06-29T20:36:55.131Z,58.23
2018-06-29T20:39:59.764Z,57.98
2018-06-29T20:43:04.299Z,58.90
2018-06-29T20:46:08.926Z,59.78
2018-06-29T20:49:13.502Z,60.58
2018-06-29T20:52:18.244Z,61.45
2018-06-29T20:55:22.853Z,62.33
2018-06-29T20:58:27.510Z,62.99
2018-06-29T21:01:32.109Z,63.10
2018-06-29T21:04:36.793Z,63.50
2018-06-29T21:07:41.230Z,63.54
2018-06-29T21:10:45.764Z,64.63
2018-06-29T21:13:50.407Z,65.00
2018-06-29T21:16:54.956Z,65.91
2018-06-29T21:19:59.474Z,66.06
2018-06-29T21:23:04.014Z,66.23
2018-06-29T21:26:08.670Z,66.66
2018-06-29T21:29:13.108Z,67.54
2018-06-29T21:32:17.654Z,67.71
2018-06-29T21:35:22.218Z,68.22
2018-06-29T21:38:26.782Z,68.73
2018-06-29T21:41:31.382Z,68.92
2018-06-29T21:44:36.036Z,69.52
2018-06-29T21:47:40.830Z,70.37
2018-06-29T21:50:45.458Z,70.37
2018-06-29T21:53:50.073Z,70.99
2018-06-29T21:56:54.829Z,71.41
2018-06-29T21:59:59.549Z,71.36
2018-06-29T22:03:10.364Z,72.60
2018-06-29T22:06:14.852Z,72.62
2018-06-29T22:09:19.513Z,73.27
2018-06-29T22:12:24.082Z,73.52
2018-06-29T22:15:29.773Z,73.73
2018-06-29T22:18:34.471Z,74.71
2018-06-29T22:21:39.087Z,74.62
2018-06-29T22:24:43.680Z,75.03
2018-06-29T22:27:48.729Z,74.95
2018-06-29T22:30:53.394Z,74.97
2018-06-29T22:33:58.007Z,75.11
2018-06-29T22:37:02.638Z,75.87
2018-06-29T22:40:08.004Z,75.77
2018-06-29T22:43:12.569Z,76.08
2018-06-29T22:46:17.748Z,76.75
2018-06-29T22:49:22.164Z,76.97
2018-06-29T22:52:26.794Z,77.15
2018-06-29T22:55:31.372Z,77.86
2018-06-29T22:58:35.901Z,77.65
2018-06-29T23:01:40.562Z,78.21
2018-06-29T23:04:45.143Z,78.56
2018-06-29T23:07:49.882Z,78.24
2018-06-29T23:10:54.414Z,79.17
2018-06-29T23:13:59.185Z,79.64
2018-06-29T23:17:03.753Z,80.22
2018-06-29T23:20:08.623Z,80.58
2018-06-29T23:23:13.146Z,80.48
2018-06-29T23:26:17.813Z,80.94
2018-06-29T23:29:22.293Z,81.60
2018-06-29T23:32:26.909Z,81.93
2018-06-29T23:35:31.408Z,82.63
2018-06-29T23:38:35.886Z,81.74
2018-06-29T23:41:40.616Z,81.59
2018-06-29T23:44:45.214Z,81.70
2018-06-29T23:47:49.854Z,81.89
2018-06-29T23:50:54.430Z,82.68
2018-06-29T23:53:59.313Z,82.85
2018-06-29T23:57:03.833Z,82.15
